Terminal Aerodrome Forecast
Issued by NWS

Current Version | Previous Version | Text Only | Print | Product List | Glossary Off
Versions: 1 2 3 4 5 6 7 8 9 10 11 12 13

692
FTUS41 KILN 231123
TAFLCK
TAF
KLCK 231123Z 2312/2412 36008KT P6SM SCT025
     FM231400 01008KT P6SM SCT025
     FM231600 03008KT P6SM SCT035
     FM232300 05003KT P6SM SKC
      AMD NOT SKED=

USA.gov is the U.S. government's official web portal to all federal, state and local government web resources and services.